Time;durP1;ratioP1;P1;durP2;ratioP2;P2;SDS_P1;SDS_P2;PMS_P1;PMS_P2;Temp;Humidity;BMP_temperature;BMP_pressure;BME280_temperature;BME280_humidity;BME280_pressure;Samples;Min_cycle;Max_cycle;Signal;HPM_P1;HPM_P2
2021/12/12 00:02:32;;;;;;;11.10;5.47;;;3.60;99.90;;;;;;4991075;28;20466;-59
2021/12/12 00:05:06;;;;;;;10.20;5.77;;;3.60;99.90;;;;;;4991549;28;20498;-59
2021/12/12 00:07:33;;;;;;;12.23;5.83;;;3.60;99.90;;;;;;4991361;28;20881;-59
2021/12/12 00:10:05;;;;;;;17.03;6.80;;;3.60;99.90;;;;;;4990739;28;20516;-58
2021/12/12 00:12:37;;;;;;;14.30;5.60;;;3.60;99.90;;;;;;4991211;28;20451;-59
2021/12/12 00:15:08;;;;;;;12.63;5.13;;;3.60;99.90;;;;;;4991349;28;20466;-59
2021/12/12 00:17:35;;;;;;;8.07;5.20;;;3.60;99.90;;;;;;4991758;28;20455;-58
2021/12/12 00:20:02;;;;;;;18.33;5.90;;;3.60;99.90;;;;;;4990322;28;20943;-59
2021/12/12 00:22:30;;;;;;;14.43;5.57;;;3.60;99.90;;;;;;4990350;28;20866;-59
2021/12/12 00:24:57;;;;;;;12.40;5.37;;;3.60;99.90;;;;;;4990066;28;20471;-59
2021/12/12 00:27:26;;;;;;;9.97;4.87;;;3.60;99.90;;;;;;4991316;28;20936;-59
2021/12/12 00:29:53;;;;;;;12.17;5.60;;;3.60;99.90;;;;;;4990903;28;20487;-56
2021/12/12 00:32:24;;;;;;;13.07;6.10;;;3.60;99.90;;;;;;4991031;28;20470;-59
2021/12/12 00:34:55;;;;;;;15.87;5.17;;;3.60;99.90;;;;;;4991062;28;20527;-59
2021/12/12 00:37:22;;;;;;;11.20;4.63;;;3.70;99.90;;;;;;4990162;28;20466;-59
2021/12/12 00:39:53;;;;;;;14.63;5.33;;;3.70;98.60;;;;;;4991024;28;20533;-59
2021/12/12 00:42:23;;;;;;;10.13;4.43;;;3.70;98.40;;;;;;4990424;28;20993;-59
2021/12/12 00:44:54;;;;;;;10.63;4.83;;;3.60;97.90;;;;;;4990501;28;20885;-59
2021/12/12 00:47:22;;;;;;;11.60;4.67;;;3.70;97.20;;;;;;4989857;28;20504;-57
2021/12/12 00:49:50;;;;;;;8.67;4.70;;;3.70;95.20;;;;;;4990811;28;20539;-59
2021/12/12 00:52:19;;;;;;;11.03;5.00;;;3.70;93.40;;;;;;4990695;28;20815;-59
2021/12/12 00:54:48;;;;;;;16.20;5.00;;;3.70;91.40;;;;;;4990507;28;21044;-58
2021/12/12 00:57:17;;;;;;;12.70;4.87;;;3.70;90.10;;;;;;4989017;28;20873;-58
2021/12/12 00:59:46;;;;;;;7.87;4.33;;;3.70;84.60;;;;;;4990313;28;20468;-58
2021/12/12 01:02:17;;;;;;;11.77;4.57;;;3.70;78.60;;;;;;4989519;28;20811;-60
2021/12/12 01:04:49;;;;;;;9.83;4.30;;;3.70;72.40;;;;;;4989408;28;20968;-58
2021/12/12 01:07:18;;;;;;;9.93;4.47;;;3.70;67.20;;;;;;4990674;28;20854;-58
2021/12/12 01:09:50;;;;;;;16.67;4.90;;;3.70;63.70;;;;;;4990197;28;20541;-58
2021/12/12 01:12:22;;;;;;;11.43;4.57;;;3.70;57.20;;;;;;4989550;28;20509;-58
2021/12/12 01:14:51;;;;;;;9.80;4.27;;;3.70;52.30;;;;;;4990067;28;20475;-56
2021/12/12 01:17:21;;;;;;;10.87;4.77;;;3.60;49.80;;;;;;4990763;28;20451;-58
2021/12/12 01:19:53;;;;;;;10.27;3.93;;;3.70;44.90;;;;;;4990848;28;20447;-58
2021/12/12 01:22:26;;;;;;;7.63;4.37;;;3.60;40.10;;;;;;4988915;28;20458;-57
2021/12/12 01:24:56;;;;;;;9.13;4.00;;;3.60;39.70;;;;;;4990318;28;20913;-58
2021/12/12 01:27:24;;;;;;;9.63;5.13;;;3.60;38.00;;;;;;4989291;28;20450;-58
2021/12/12 01:29:52;;;;;;;11.40;4.30;;;3.70;33.90;;;;;;4989816;28;20486;-58
2021/12/12 01:32:23;;;;;;;9.83;4.07;;;3.70;28.50;;;;;;4989191;28;20504;-58
2021/12/12 01:34:51;;;;;;;8.97;3.67;;;3.70;28.10;;;;;;4990144;28;20816;-58
2021/12/12 01:37:36;;;;;;;8.93;3.77;;;3.70;26.30;;;;;;4989897;28;20459;-58
2021/12/12 01:40:09;;;;;;;11.67;4.30;;;3.70;22.60;;;;;;4989466;28;20524;-59
2021/12/12 01:42:40;;;;;;;6.73;3.53;;;3.70;19.30;;;;;;4989137;28;21120;-58
2021/12/12 01:45:11;;;;;;;11.37;4.47;;;3.70;13.90;;;;;;4989768;28;20487;-58
2021/12/12 01:47:41;;;;;;;13.00;3.53;;;3.70;14.40;;;;;;4989800;28;20453;-58
2021/12/12 01:50:14;;;;;;;9.17;4.07;;;3.80;10.90;;;;;;4989151;28;20490;-58
2021/12/12 01:52:43;;;;;;;6.60;3.60;;;3.80;8.30;;;;;;4989801;28;20459;-58
2021/12/12 01:55:21;;;;;;;9.87;3.67;;;3.80;3.20;;;;;;4989847;28;20478;-58
2021/12/12 01:57:49;;;;;;;8.13;3.63;;;3.80;1.00;;;;;;4988936;28;20455;-58
2021/12/12 02:00:22;;;;;;;6.17;2.90;;;3.80;1.20;;;;;;4988128;28;20451;-58
2021/12/12 02:02:49;;;;;;;9.57;3.67;;;3.80;1.00;;;;;;4989601;28;20505;-58
2021/12/12 02:05:20;;;;;;;8.07;3.77;;;3.80;1.00;;;;;;4989011;28;20228;-58
2021/12/12 02:07:53;;;;;;;4.90;2.83;;;3.80;1.00;;;;;;4988613;28;20668;-58
2021/12/12 02:10:24;;;;;;;7.17;3.10;;;3.80;1.50;;;;;;4991887;28;20482;-58
2021/12/12 02:12:51;;;;;;;6.83;3.10;;;3.90;1.00;;;;;;4992828;28;20497;-58
2021/12/12 02:15:18;;;;;;;6.77;2.90;;;3.90;1.00;;;;;;4993225;28;20227;-58
2021/12/12 02:17:49;;;;;;;5.93;3.03;;;3.90;1.00;;;;;;4992091;28;20270;-58
2021/12/12 02:20:27;;;;;;;8.27;3.07;;;3.90;1.00;;;;;;4993046;28;20458;-58
2021/12/12 02:23:06;;;;;;;7.37;2.83;;;3.90;1.00;;;;;;4992496;28;20213;-58
2021/12/12 02:36:41;;;;;;;9.37;3.30;;;4.00;1.00;;;;;;4992089;28;20254;-58
2021/12/12 02:39:15;;;;;;;8.93;3.60;;;4.00;1.00;;;;;;4992876;28;20462;-59
2021/12/12 02:41:44;;;;;;;10.53;3.83;;;4.00;1.00;;;;;;4992311;28;21033;-58
2021/12/12 02:44:12;;;;;;;7.33;2.90;;;4.00;1.00;;;;;;4991935;28;20483;-59
2021/12/12 02:46:42;;;;;;;7.40;2.80;;;4.00;1.00;;;;;;4992230;28;20746;-59
2021/12/12 02:49:24;;;;;;;11.13;3.20;;;4.00;1.00;;;;;;4992732;28;20831;-58
2021/12/12 02:51:51;;;;;;;7.70;2.90;;;4.00;1.00;;;;;;4991356;28;20944;-59
2021/12/12 02:54:20;;;;;;;4.50;2.70;;;4.00;1.00;;;;;;4992550;28;20875;-59
2021/12/12 02:56:50;;;;;;;9.33;3.20;;;4.00;1.00;;;;;;4992140;28;20999;-59
2021/12/12 02:59:20;;;;;;;5.97;3.67;;;4.10;1.00;;;;;;4992739;28;20235;-58
2021/12/12 03:01:50;;;;;;;5.57;2.10;;;4.10;1.00;;;;;;4991715;28;20463;-59
2021/12/12 03:04:17;;;;;;;7.43;2.83;;;4.10;1.00;;;;;;4992341;28;20579;-59
2021/12/12 03:06:44;;;;;;;6.37;2.80;;;4.20;1.00;;;;;;4992134;28;20212;-59
2021/12/12 03:09:15;;;;;;;5.97;3.07;;;4.20;1.00;;;;;;4991606;28;20456;-59
2021/12/12 03:11:44;;;;;;;7.90;2.90;;;4.20;1.00;;;;;;4992230;28;20207;-59
2021/12/12 03:14:11;;;;;;;8.37;3.30;;;4.20;1.00;;;;;;4992144;28;20300;-59
2021/12/12 03:16:39;;;;;;;8.00;2.93;;;4.20;1.00;;;;;;4992311;28;20208;-59
2021/12/12 03:19:07;;;;;;;5.83;2.47;;;4.20;1.00;;;;;;4991079;28;20208;-58
2021/12/12 03:21:37;;;;;;;6.17;2.40;;;4.20;1.00;;;;;;4991535;28;20217;-58
2021/12/12 03:24:08;;;;;;;8.63;2.83;;;4.30;1.00;;;;;;4991644;28;20506;-58
2021/12/12 03:26:36;;;;;;;10.10;2.93;;;4.30;1.00;;;;;;4992073;28;20733;-58
2021/12/12 03:29:06;;;;;;;7.13;2.60;;;4.30;1.00;;;;;;4990805;28;20891;-58
2021/12/12 03:31:35;;;;;;;5.33;2.20;;;4.30;1.00;;;;;;4991131;28;20281;-59
2021/12/12 03:34:05;;;;;;;9.97;2.77;;;4.30;1.00;;;;;;4991967;28;20282;-59
2021/12/12 03:36:33;;;;;;;8.13;3.20;;;4.30;1.00;;;;;;4991260;28;20210;-58
2021/12/12 03:39:06;;;;;;;8.57;3.07;;;4.40;1.00;;;;;;4991829;28;20221;-58
2021/12/12 03:41:35;;;;;;;8.30;3.43;;;4.40;1.00;;;;;;4990568;28;20209;-58
2021/12/12 03:44:09;;;;;;;7.53;2.97;;;4.40;1.00;;;;;;4991164;28;20268;-59
2021/12/12 03:46:36;;;;;;;8.73;2.43;;;4.40;1.00;;;;;;4991197;28;20245;-59
2021/12/12 03:49:05;;;;;;;8.77;2.93;;;4.40;1.00;;;;;;4991166;28;20210;-58
2021/12/12 03:51:33;;;;;;;5.73;2.50;;;4.40;1.00;;;;;;4991171;28;20933;-59
2021/12/12 03:54:00;;;;;;;4.23;2.30;;;4.50;1.00;;;;;;4991695;28;20275;-57
2021/12/12 03:56:27;;;;;;;5.50;2.93;;;4.50;1.00;;;;;;4991803;28;20204;-57
2021/12/12 03:58:54;;;;;;;11.93;3.03;;;4.50;1.00;;;;;;4991750;28;20815;-57
2021/12/12 04:01:26;;;;;;;11.27;2.23;;;4.40;1.00;;;;;;4991017;28;20624;-56
2021/12/12 04:03:55;;;;;;;9.27;2.93;;;4.50;1.00;;;;;;4991522;28;20230;-58
2021/12/12 04:06:25;;;;;;;7.80;3.17;;;4.50;1.00;;;;;;4990463;28;20257;-58
2021/12/12 04:08:54;;;;;;;7.70;2.30;;;4.50;1.00;;;;;;4991121;28;20774;-58
2021/12/12 04:11:23;;;;;;;10.27;3.17;;;4.50;1.00;;;;;;4989564;28;20228;-59
2021/12/12 04:13:53;;;;;;;6.60;2.30;;;4.60;1.00;;;;;;4991471;28;20215;-58
2021/12/12 04:16:22;;;;;;;9.30;2.87;;;4.60;1.00;;;;;;4990812;28;20213;-57
2021/12/12 04:18:48;;;;;;;7.20;3.00;;;4.60;1.00;;;;;;4991273;28;20242;-59
2021/12/12 04:21:19;;;;;;;5.17;2.90;;;4.60;1.00;;;;;;4990478;28;20249;-59
2021/12/12 04:23:45;;;;;;;8.60;3.00;;;4.60;1.00;;;;;;4991131;28;20605;-56
2021/12/12 04:26:15;;;;;;;8.30;2.60;;;4.60;1.00;;;;;;4989904;28;20250;-57
2021/12/12 04:28:42;;;;;;;7.07;2.53;;;4.60;1.00;;;;;;4991123;28;20210;-59
2021/12/12 04:31:09;;;;;;;12.87;2.90;;;4.60;1.00;;;;;;4988631;28;20258;-59
2021/12/12 04:33:38;;;;;;;9.23;2.67;;;4.50;1.00;;;;;;4990813;28;20261;-60
2021/12/12 04:36:06;;;;;;;9.23;2.90;;;4.50;1.00;;;;;;4991077;28;20213;-58
2021/12/12 04:38:33;;;;;;;8.53;2.97;;;4.50;1.00;;;;;;4990955;28;20204;-59
2021/12/12 04:40:59;;;;;;;5.00;2.50;;;4.50;1.00;;;;;;4990851;28;20208;-56
2021/12/12 04:43:26;;;;;;;10.63;2.63;;;4.50;1.00;;;;;;4990309;28;20214;-57
2021/12/12 04:46:06;;;;;;;8.87;2.90;;;4.50;1.10;;;;;;4990368;28;20255;-58
2021/12/12 04:51:32;;;;;;;9.93;2.90;;;4.40;1.20;;;;;;4990678;28;20241;-56
2021/12/12 04:54:02;;;;;;;8.10;2.73;;;4.40;1.30;;;;;;4990676;28;20293;-59
2021/12/12 04:56:33;;;;;;;7.37;2.97;;;4.40;1.00;;;;;;4990075;28;20205;-57
2021/12/12 04:59:08;;;;;;;8.47;2.70;;;4.50;1.40;;;;;;4990604;28;20679;-55
2021/12/12 05:01:36;;;;;;;6.60;2.63;;;4.50;1.80;;;;;;4990336;28;20212;-57
2021/12/12 05:04:09;;;;;;;7.80;3.00;;;4.50;1.70;;;;;;4990805;28;20289;-57
2021/12/12 05:06:40;;;;;;;6.50;2.63;;;4.50;2.60;;;;;;4989716;28;20210;-57
2021/12/12 05:09:10;;;;;;;8.73;2.73;;;4.50;1.70;;;;;;4990742;28;20219;-59
2021/12/12 05:11:55;;;;;;;7.50;2.90;;;4.50;1.30;;;;;;4989760;28;20232;-57
2021/12/12 05:14:27;;;;;;;8.53;3.07;;;4.50;1.70;;;;;;4991052;28;20308;-59
2021/12/12 05:17:02;;;;;;;8.63;3.30;;;4.50;1.30;;;;;;4990427;28;20211;-57
2021/12/12 05:19:31;;;;;;;6.40;2.90;;;4.60;1.40;;;;;;4990442;28;20230;-58
2021/12/12 05:22:02;;;;;;;9.40;3.10;;;4.60;1.30;;;;;;4990035;28;20211;-56
2021/12/12 05:24:30;;;;;;;11.07;3.13;;;4.60;8.00;;;;;;4990275;28;20281;-55
2021/12/12 05:27:03;;;;;;;11.13;3.10;;;4.50;18.70;;;;;;4990419;28;20214;-57
2021/12/12 05:29:33;;;;;;;3.57;1.97;;;4.50;28.20;;;;;;4990363;28;20307;-55
2021/12/12 05:32:05;;;;;;;9.43;3.03;;;4.50;42.90;;;;;;4990119;28;20493;-52
2021/12/12 05:34:36;;;;;;;13.67;3.10;;;4.50;58.90;;;;;;4990122;28;20919;-52
2021/12/12 05:37:05;;;;;;;8.23;3.90;;;4.40;87.90;;;;;;4989363;28;20212;-60
2021/12/12 05:39:33;;;;;;;7.87;3.30;;;4.30;99.90;;;;;;4989669;28;20257;-58
2021/12/12 05:42:01;;;;;;;9.33;3.20;;;4.30;99.90;;;;;;4989650;28;20630;-58
2021/12/12 05:44:31;;;;;;;14.50;3.27;;;4.30;99.90;;;;;;4989736;28;20236;-52
2021/12/12 05:47:00;;;;;;;9.70;3.80;;;4.30;99.90;;;;;;4989175;28;20270;-55
2021/12/12 05:49:28;;;;;;;9.77;3.60;;;4.30;99.90;;;;;;4989754;28;20633;-57
2021/12/12 05:51:56;;;;;;;9.60;3.10;;;4.30;99.90;;;;;;4989430;28;20227;-56
2021/12/12 05:54:25;;;;;;;5.77;3.30;;;4.30;99.90;;;;;;4989924;28;20235;-58
2021/12/12 05:56:52;;;;;;;7.00;3.60;;;4.30;99.90;;;;;;4989116;28;20206;-58
2021/12/12 05:59:20;;;;;;;8.83;3.07;;;4.30;99.90;;;;;;4989446;28;20280;-59
2021/12/12 06:01:48;;;;;;;6.37;3.47;;;4.30;99.90;;;;;;4989241;28;20266;-57
2021/12/12 06:04:17;;;;;;;10.37;4.07;;;4.30;99.90;;;;;;4989256;28;20228;-57
2021/12/12 06:06:45;;;;;;;11.97;3.93;;;4.30;99.90;;;;;;4989679;28;20676;-59
2021/12/12 06:09:14;;;;;;;9.10;3.73;;;4.30;99.90;;;;;;4989835;28;20447;-58
2021/12/12 06:11:44;;;;;;;9.13;3.87;;;4.30;1.00;;;;;;4989308;28;20258;-59
2021/12/12 06:14:12;;;;;;;7.73;3.53;;;4.30;1.00;;;;;;4989177;28;20231;-59
2021/12/12 06:16:39;;;;;;;13.83;4.13;;;4.30;1.00;;;;;;4990273;28;20321;-60
2021/12/12 06:19:11;;;;;;;11.37;3.63;;;4.30;1.00;;;;;;4989060;28;20204;-58
2021/12/12 06:21:38;;;;;;;11.60;4.07;;;4.40;1.00;;;;;;4988032;28;20208;-59
2021/12/12 06:24:06;;;;;;;9.50;4.23;;;4.40;1.00;;;;;;4989367;28;20235;-59
2021/12/12 06:26:36;;;;;;;7.83;3.83;;;4.40;1.00;;;;;;4989310;28;20512;-57
2021/12/12 06:29:04;;;;;;;10.77;5.13;;;4.40;1.00;;;;;;4988887;28;20672;-57
2021/12/12 06:31:31;;;;;;;8.33;4.00;;;4.40;1.00;;;;;;4989028;28;20282;-58
2021/12/12 06:33:58;;;;;;;8.87;4.97;;;4.40;1.00;;;;;;4988293;28;20240;-57
2021/12/12 06:36:26;;;;;;;5.87;3.27;;;4.40;1.00;;;;;;4989499;28;20212;-56
2021/12/12 06:38:55;;;;;;;8.53;4.23;;;4.50;1.00;;;;;;4989468;28;20208;-54
2021/12/12 06:41:24;;;;;;;10.10;4.23;;;4.50;1.00;;;;;;4987972;28;20204;-58
2021/12/12 06:43:52;;;;;;;8.50;4.00;;;4.50;1.00;;;;;;4989412;28;20289;-57
2021/12/12 06:46:20;;;;;;;10.27;4.00;;;4.50;1.00;;;;;;4989699;28;20204;-57
2021/12/12 06:48:47;;;;;;;7.23;4.27;;;4.50;1.00;;;;;;4988934;28;20291;-57
2021/12/12 06:51:15;;;;;;;5.57;2.67;;;4.50;1.00;;;;;;4988415;28;20227;-56
2021/12/12 06:53:44;;;;;;;7.77;4.30;;;4.50;1.00;;;;;;4989088;28;20212;-55
2021/12/12 06:56:14;;;;;;;6.53;3.90;;;4.50;1.00;;;;;;4992008;28;20210;-56
2021/12/12 06:58:41;;;;;;;5.80;3.73;;;4.50;1.00;;;;;;4991815;28;20238;-56
2021/12/12 07:01:12;;;;;;;5.90;3.80;;;4.50;1.00;;;;;;4992392;28;20250;-59
2021/12/12 07:03:39;;;;;;;6.10;3.53;;;4.60;1.00;;;;;;4992161;28;20742;-56
2021/12/12 07:06:07;;;;;;;6.13;3.60;;;4.60;1.00;;;;;;4992392;28;20208;-56
2021/12/12 07:08:34;;;;;;;6.07;3.17;;;4.60;1.00;;;;;;4991327;28;20214;-59
2021/12/12 07:11:02;;;;;;;7.20;4.03;;;4.60;1.00;;;;;;4992371;28;20233;-58
2021/12/12 07:13:29;;;;;;;9.17;3.13;;;4.60;1.00;;;;;;4991922;28;20208;-58
2021/12/12 07:15:58;;;;;;;6.40;3.13;;;4.60;1.00;;;;;;4991681;28;20232;-57
2021/12/12 07:18:30;;;;;;;4.77;3.37;;;4.70;4.60;;;;;;4992298;28;20254;-58
2021/12/12 07:21:00;;;;;;;6.10;3.33;;;4.60;8.90;;;;;;4992078;28;20208;-58
2021/12/12 07:23:27;;;;;;;4.83;3.30;;;4.70;16.20;;;;;;4992190;28;20233;-58
2021/12/12 07:25:55;;;;;;;4.20;2.90;;;4.70;26.80;;;;;;4992215;28;20237;-57
2021/12/12 07:28:22;;;;;;;5.47;2.77;;;4.70;34.90;;;;;;4992171;28;20559;-57
2021/12/12 07:30:49;;;;;;;6.30;3.60;;;4.80;42.40;;;;;;4992026;28;20276;-59
2021/12/12 07:33:16;;;;;;;4.03;2.77;;;4.80;43.70;;;;;;4991662;28;20213;-59
2021/12/12 07:35:45;;;;;;;4.90;3.13;;;4.80;47.60;;;;;;4991879;28;20224;-58
2021/12/12 07:38:14;;;;;;;5.70;3.50;;;4.70;49.40;;;;;;4991767;28;20673;-58
2021/12/12 07:40:40;;;;;;;9.23;3.50;;;4.80;56.80;;;;;;4991945;28;20752;-59
2021/12/12 07:43:08;;;;;;;4.70;3.30;;;4.80;59.60;;;;;;4991669;28;20212;-59
2021/12/12 07:45:35;;;;;;;4.10;2.87;;;4.90;72.00;;;;;;4991828;28;20241;-58
2021/12/12 07:48:03;;;;;;;4.10;3.20;;;4.90;86.30;;;;;;4991765;28;20210;-58
2021/12/12 07:50:30;;;;;;;4.97;2.97;;;5.00;92.00;;;;;;4992032;28;20669;-57
2021/12/12 07:52:59;;;;;;;6.20;3.00;;;5.00;95.00;;;;;;4991331;28;20717;-58
2021/12/12 07:55:27;;;;;;;4.10;2.90;;;5.00;96.10;;;;;;4991919;28;20230;-59
2021/12/12 07:57:54;;;;;;;5.93;3.30;;;5.10;98.80;;;;;;4991633;28;20623;-59
2021/12/12 08:00:24;;;;;;;4.00;3.00;;;5.10;98.70;;;;;;4991629;28;20209;-58
2021/12/12 08:02:54;;;;;;;4.07;2.67;;;5.10;98.60;;;;;;4991123;28;20768;-59
2021/12/12 08:05:28;;;;;;;4.20;3.30;;;5.10;99.20;;;;;;4991173;28;20786;-59
2021/12/12 08:07:58;;;;;;;5.07;2.87;;;5.10;96.90;;;;;;4990835;28;20218;-59
2021/12/12 08:10:26;;;;;;;4.87;3.10;;;5.10;99.50;;;;;;4991676;28;20257;-58
2021/12/12 08:12:53;;;;;;;6.07;2.47;;;5.10;99.90;;;;;;4991767;28;20272;-58
2021/12/12 08:15:21;;;;;;;4.93;2.83;;;5.20;99.90;;;;;;4991644;28;20284;-58
2021/12/12 08:17:49;;;;;;;5.37;3.57;;;5.20;99.90;;;;;;4991889;28;20220;-57
2021/12/12 08:20:17;;;;;;;3.87;3.23;;;5.20;99.90;;;;;;4991450;28;20209;-59
2021/12/12 08:22:44;;;;;;;5.10;2.73;;;5.20;99.90;;;;;;4990957;28;20207;-59
2021/12/12 08:25:13;;;;;;;4.17;2.90;;;5.30;99.90;;;;;;4991069;28;20260;-56
2021/12/12 08:27:41;;;;;;;5.03;3.27;;;5.30;99.90;;;;;;4991137;28;20212;-57
2021/12/12 08:30:11;;;;;;;4.97;3.27;;;5.40;99.90;;;;;;4991439;28;20218;-57
2021/12/12 08:32:38;;;;;;;6.37;3.80;;;5.30;99.90;;;;;;4990847;28;20238;-58
2021/12/12 08:35:07;;;;;;;5.97;3.40;;;5.40;99.90;;;;;;4991304;28;20690;-58
2021/12/12 08:37:34;;;;;;;4.70;2.93;;;5.30;99.90;;;;;;4991195;28;20209;-58
2021/12/12 08:40:04;;;;;;;4.33;2.83;;;5.30;99.90;;;;;;4991019;28;20266;-57
2021/12/12 08:42:32;;;;;;;4.30;3.37;;;5.40;99.90;;;;;;4990931;28;20211;-58
2021/12/12 08:45:01;;;;;;;4.60;2.60;;;5.30;99.90;;;;;;4991033;28;20241;-58
2021/12/12 08:47:28;;;;;;;4.63;2.83;;;5.40;99.90;;;;;;4990967;28;20265;-59
2021/12/12 08:49:55;;;;;;;4.43;3.07;;;5.50;99.90;;;;;;4991114;28;20210;-57
2021/12/12 08:52:28;;;;;;;5.03;3.60;;;5.50;99.90;;;;;;4990431;28;20650;-58
2021/12/12 08:54:56;;;;;;;5.13;3.43;;;5.50;99.90;;;;;;4990617;28;20321;-57
2021/12/12 08:57:33;;;;;;;8.20;3.47;;;5.50;99.90;;;;;;4991148;28;20204;-57
2021/12/12 09:00:06;;;;;;;4.57;3.17;;;5.50;99.90;;;;;;4990820;28;20716;-57
2021/12/12 09:02:33;;;;;;;3.37;2.80;;;5.50;99.90;;;;;;4990425;28;20601;-58
2021/12/12 09:05:04;;;;;;;3.70;2.93;;;5.60;99.90;;;;;;4990407;28;20275;-58
2021/12/12 09:07:35;;;;;;;3.73;2.87;;;5.60;99.90;;;;;;4990847;28;20209;-65
2021/12/12 09:10:09;;;;;;;4.10;3.53;;;5.70;99.90;;;;;;4990716;28;20220;-59
2021/12/12 09:12:39;;;;;;;4.37;3.47;;;5.60;99.90;;;;;;4990247;28;20227;-58
2021/12/12 09:15:12;;;;;;;3.77;3.20;;;5.70;99.90;;;;;;4991016;28;20231;-58
2021/12/12 09:17:44;;;;;;;5.63;3.17;;;5.70;99.90;;;;;;4989905;28;20208;-61
2021/12/12 09:20:17;;;;;;;3.57;3.07;;;5.80;99.90;;;;;;4990965;28;20210;-58
2021/12/12 09:22:55;;;;;;;3.03;2.63;;;5.80;99.90;;;;;;4990138;28;20208;-59
2021/12/12 09:25:34;;;;;;;3.43;3.10;;;5.80;99.90;;;;;;4990657;28;20758;-59
2021/12/12 09:28:08;;;;;;;3.90;3.17;;;5.80;99.90;;;;;;4990341;28;20211;-60
2021/12/12 09:30:37;;;;;;;3.83;3.40;;;5.80;99.90;;;;;;4990644;28;20208;-59
2021/12/12 09:33:12;;;;;;;4.60;3.10;;;5.80;99.90;;;;;;4990602;28;20239;-59
2021/12/12 09:35:43;;;;;;;4.13;2.80;;;5.90;99.90;;;;;;4990528;28;20285;-60
2021/12/12 09:38:16;;;;;;;3.47;2.80;;;5.80;99.90;;;;;;4990570;28;20741;-59
2021/12/12 09:41:05;;;;;;;4.73;3.47;;;5.90;99.90;;;;;;4990137;28;20210;-57
2021/12/12 09:43:44;;;;;;;4.00;3.40;;;5.90;99.90;;;;;;4987741;28;20729;-58
2021/12/12 09:46:30;;;;;;;5.47;3.90;;;5.90;99.90;;;;;;4970501;28;20222;-59
2021/12/12 09:52:37;;;;;;;8.13;4.20;;;5.90;99.90;;;;;;4970381;28;20231;-58
2021/12/12 09:55:09;;;;;;;5.53;4.60;;;6.00;1.00;;;;;;4970976;28;20772;-57
2021/12/12 09:57:41;;;;;;;5.43;4.73;;;6.00;1.00;;;;;;4970518;28;20265;-59
2021/12/12 10:00:17;;;;;;;6.03;5.20;;;6.10;1.00;;;;;;4970498;28;20253;-58
2021/12/12 10:03:11;;;;;;;9.73;4.90;;;6.10;1.00;;;;;;4970300;28;20254;-59
2021/12/12 10:05:49;;;;;;;6.73;5.47;;;6.10;1.00;;;;;;4970176;28;20236;-59
2021/12/12 10:08:27;;;;;;;7.30;5.23;;;6.10;1.00;;;;;;4970378;28;20238;-58
2021/12/12 10:11:02;;;;;;;9.20;5.77;;;6.10;1.00;;;;;;4970286;28;20677;-59
2021/12/12 10:13:38;;;;;;;9.83;6.23;;;6.10;1.00;;;;;;4969749;28;20230;-57
2021/12/12 10:16:11;;;;;;;19.77;7.67;;;6.10;1.00;;;;;;4970068;28;20265;-58
2021/12/12 10:18:52;;;;;;;12.93;6.80;;;6.10;1.00;;;;;;4970201;28;20646;-62
2021/12/12 10:21:26;;;;;;;10.40;7.13;;;6.10;1.00;;;;;;4977761;28;20199;-58
2021/12/12 10:24:23;;;;;;;11.13;7.63;;;6.10;1.00;;;;;;5002700;22;20264;-68
2021/12/12 10:27:03;;;;;;;11.53;7.43;;;6.20;1.00;;;;;;4950884;28;20208;-67
2021/12/12 10:29:36;;;;;;;10.00;7.93;;;6.30;1.00;;;;;;4951095;29;20216;-68
2021/12/12 10:32:10;;;;;;;13.00;8.07;;;6.30;1.00;;;;;;4953737;29;20651;-68
2021/12/12 10:34:48;;;;;;;13.43;7.57;;;6.40;1.00;;;;;;4953436;28;20757;-67
2021/12/12 10:37:18;;;;;;;11.77;8.50;;;6.40;1.00;;;;;;4954365;29;20196;-66
2021/12/12 10:40:10;;;;;;;13.03;6.47;;;6.30;1.00;;;;;;4953857;29;20213;-67
2021/12/12 10:42:45;;;;;;;13.33;8.03;;;6.40;1.00;;;;;;4953912;29;20189;-63
2021/12/12 10:45:18;;;;;;;8.27;6.43;;;6.40;1.00;;;;;;4953795;28;20313;-63
2021/12/12 10:47:56;;;;;;;16.80;8.23;;;6.40;1.00;;;;;;4953617;28;20683;-64
2021/12/12 10:50:41;;;;;;;10.20;7.30;;;6.50;1.00;;;;;;4953828;28;20220;-63
2021/12/12 10:53:25;;;;;;;10.07;7.10;;;6.50;1.00;;;;;;4953916;29;20227;-65
2021/12/12 10:55:56;;;;;;;7.23;6.13;;;6.60;1.00;;;;;;4953981;28;20286;-63
2021/12/12 10:58:27;;;;;;;12.67;6.13;;;6.60;1.00;;;;;;4953659;29;20209;-63
2021/12/12 11:00:57;;;;;;;10.57;6.10;;;6.70;1.00;;;;;;4953440;29;20220;-64
2021/12/12 11:03:30;;;;;;;8.17;6.10;;;6.70;1.00;;;;;;4953286;29;20561;-64
2021/12/12 11:06:03;;;;;;;11.63;5.27;;;6.60;1.00;;;;;;4953345;28;20720;-64
2021/12/12 11:08:37;;;;;;;8.73;6.13;;;6.70;1.00;;;;;;4953889;29;20630;-63
2021/12/12 11:11:11;;;;;;;10.77;6.70;;;6.70;1.00;;;;;;4953239;28;20635;-63
2021/12/12 11:13:41;;;;;;;10.93;5.63;;;6.70;1.00;;;;;;4953358;28;20224;-62
2021/12/12 11:16:14;;;;;;;12.73;5.30;;;6.80;1.00;;;;;;4953350;28;20209;-62
2021/12/12 11:18:46;;;;;;;7.63;4.33;;;6.70;1.00;;;;;;4953468;28;20660;-58
2021/12/12 11:21:22;;;;;;;5.30;4.57;;;6.60;1.00;;;;;;4952733;29;20205;-58
2021/12/12 11:23:52;;;;;;;5.30;4.20;;;6.60;1.00;;;;;;4953446;28;20209;-57
2021/12/12 11:26:23;;;;;;;5.23;3.77;;;6.60;1.00;;;;;;4953453;29;20266;-58
2021/12/12 11:28:54;;;;;;;5.50;3.97;;;6.70;1.00;;;;;;4953194;29;20209;-58
2021/12/12 11:31:32;;;;;;;7.13;4.47;;;6.70;1.00;;;;;;4952521;29;20689;-57
2021/12/12 11:33:59;;;;;;;5.63;4.20;;;6.70;1.00;;;;;;4953155;28;20240;-57
2021/12/12 11:36:30;;;;;;;5.60;3.67;;;6.70;1.00;;;;;;4953138;28;20243;-58
2021/12/12 11:39:06;;;;;;;5.93;4.43;;;6.60;1.00;;;;;;4953144;28;20595;-58
2021/12/12 11:41:39;;;;;;;5.80;3.60;;;6.60;1.00;;;;;;4952011;28;20263;-58
2021/12/12 11:44:14;;;;;;;5.40;4.30;;;6.60;1.00;;;;;;4952965;28;20225;-59
2021/12/12 11:46:50;;;;;;;4.63;3.87;;;6.60;1.00;;;;;;4953013;28;20262;-59
2021/12/12 11:49:22;;;;;;;4.50;3.80;;;6.70;1.00;;;;;;4952764;28;20213;-58
2021/12/12 11:51:57;;;;;;;6.00;4.40;;;6.70;1.00;;;;;;4951860;28;20278;-59
2021/12/12 11:54:34;;;;;;;4.37;3.97;;;6.80;1.00;;;;;;4952975;28;20232;-59
2021/12/12 11:57:06;;;;;;;4.30;3.70;;;6.70;1.00;;;;;;4952506;29;20208;-61
2021/12/12 11:59:41;;;;;;;5.57;4.17;;;6.70;1.00;;;;;;4952608;29;20648;-61
2021/12/12 12:02:32;;;;;;;4.03;3.63;;;6.70;1.00;;;;;;4952164;28;20236;-61
2021/12/12 12:05:15;;;;;;;5.40;4.27;;;6.70;1.00;;;;;;4953108;28;20239;-61
2021/12/12 12:07:58;;;;;;;6.17;3.77;;;6.70;1.00;;;;;;4952702;29;20212;-59
2021/12/12 12:10:40;;;;;;;4.60;3.60;;;6.70;1.00;;;;;;4952288;29;20262;-58
2021/12/12 12:13:17;;;;;;;6.70;4.53;;;6.70;1.00;;;;;;4952217;28;20229;-56
2021/12/12 12:15:50;;;;;;;5.07;4.17;;;6.70;99.90;;;;;;4952567;28;20232;-55
2021/12/12 12:18:39;;;;;;;5.17;4.00;;;6.80;90.80;;;;;;4952832;28;20249;-56
2021/12/12 12:21:13;;;;;;;6.00;4.87;;;6.80;90.50;;;;;;4952065;29;20209;-58
2021/12/12 12:24:11;;;;;;;4.90;3.83;;;6.80;88.90;;;;;;4952564;28;20206;-58
2021/12/12 12:26:54;;;;;;;5.17;3.87;;;6.80;90.80;;;;;;4952403;28;20850;-58
2021/12/12 12:30:09;;;;;;;4.77;4.00;;;6.80;90.80;;;;;;4952116;29;20220;-58
2021/12/12 12:33:14;;;;;;;6.33;4.73;;;6.80;90.60;;;;;;4951689;29;20225;-58
2021/12/12 12:36:21;;;;;;;5.27;4.07;;;6.80;90.60;;;;;;4951925;28;20263;-62
2021/12/12 12:39:56;;;;;;;5.37;4.00;;;6.80;90.60;;;;;;4952125;29;20209;-58
2021/12/12 12:43:02;;;;;;;5.10;4.37;;;6.80;90.70;;;;;;4951860;29;20235;-57
2021/12/12 12:46:11;;;;;;;5.27;4.30;;;6.80;90.80;;;;;;4963519;28;20742;-58
2021/12/12 12:49:14;;;;;;;5.27;4.40;;;6.80;90.30;;;;;;4952204;29;20218;-58
2021/12/12 12:52:04;;;;;;;4.83;3.87;;;6.90;90.70;;;;;;4971123;28;20217;-58
2021/12/12 12:54:43;;;;;;;4.70;4.20;;;6.90;90.70;;;;;;4950862;28;20233;-58
2021/12/12 12:57:21;;;;;;;5.73;4.50;;;6.90;90.60;;;;;;4951793;29;20209;-57
2021/12/12 13:00:09;;;;;;;4.27;3.87;;;6.90;90.70;;;;;;4952316;28;20205;-58
2021/12/12 13:03:03;;;;;;;6.00;4.10;;;6.90;85.90;;;;;;4951688;29;20208;-58
2021/12/12 13:05:59;;;;;;;4.60;4.13;;;6.90;83.60;;;;;;4952259;28;20233;-57
2021/12/12 13:08:55;;;;;;;5.13;3.87;;;6.90;85.30;;;;;;4952115;28;20251;-56
2021/12/12 13:11:30;;;;;;;4.83;4.33;;;6.90;89.00;;;;;;4951889;29;20602;-59
2021/12/12 13:14:06;;;;;;;4.33;3.67;;;7.00;90.90;;;;;;4952057;28;20228;-59
2021/12/12 13:16:44;;;;;;;5.80;5.20;;;7.00;90.60;;;;;;4952286;29;20810;-59
2021/12/12 13:19:17;;;;;;;6.17;5.30;;;6.90;90.50;;;;;;4951999;28;20213;-58
2021/12/12 13:21:54;;;;;;;6.10;5.50;;;6.90;90.60;;;;;;4949438;28;20221;-58
2021/12/12 13:24:25;;;;;;;5.30;4.60;;;7.00;90.80;;;;;;5051701;28;20233;-61
2021/12/12 13:27:05;;;;;;;5.33;4.50;;;7.00;91.40;;;;;;5052156;28;20205;-60
2021/12/12 13:29:43;;;;;;;4.37;3.93;;;7.10;93.70;;;;;;5052099;28;20225;-58
2021/12/12 13:32:17;;;;;;;8.53;4.77;;;7.10;97.30;;;;;;5051711;28;20627;-61
2021/12/12 13:34:48;;;;;;;7.37;4.90;;;7.10;99.20;;;;;;5051765;28;20309;-60
2021/12/12 13:37:23;;;;;;;6.37;5.33;;;7.10;99.90;;;;;;5051689;28;20597;-60
2021/12/12 13:40:07;;;;;;;5.60;4.23;;;7.20;99.90;;;;;;5051953;28;20263;-65
2021/12/12 13:42:45;;;;;;;5.77;4.77;;;7.20;99.90;;;;;;5051477;28;20281;-64
2021/12/12 13:45:29;;;;;;;7.00;5.37;;;7.20;99.90;;;;;;5053403;28;20222;-66
2021/12/12 13:48:09;;;;;;;6.63;5.60;;;7.30;99.90;;;;;;5051892;28;20207;-67